sensor_id;sensor_type;location;lat;lon;timestamp;noise_LAeq;noise_LA_min;noise_LA_max;noise_LA01;noise_LA95
69610;Laerm;56816;52.192;4.474;2022-07-21T00:00:01;40.24;35.20;54.27;;
69610;Laerm;56816;52.192;4.474;2022-07-21T00:00:15;40.28;36.13;49.19;;
69610;Laerm;56816;52.192;4.474;2022-07-21T00:00:26;40.35;35.63;50.47;;
69610;Laerm;56816;52.192;4.474;2022-07-21T00:00:37;39.34;36.25;43.34;;
69610;Laerm;56816;52.192;4.474;2022-07-21T00:00:47;41.37;36.88;47.42;;
69610;Laerm;56816;52.192;4.474;2022-07-21T00:00:57;42.07;37.94;49.67;;
69610;Laerm;56816;52.192;4.474;2022-07-21T00:01:08;37.82;34.53;42.47;;
69610;Laerm;56816;52.192;4.474;2022-07-21T00:01:18;36.88;34.41;39.94;;
69610;Laerm;56816;52.192;4.474;2022-07-21T00:01:28;37.07;34.52;40.55;;
69610;Laerm;56816;52.192;4.474;2022-07-21T00:01:39;36.20;34.34;40.09;;
69610;Laerm;56816;52.192;4.474;2022-07-21T00:01:50;35.81;33.67;40.52;;
69610;Laerm;56816;52.192;4.474;2022-07-21T00:02:00;36.57;33.76;41.63;;
69610;Laerm;56816;52.192;4.474;2022-07-21T00:02:10;39.69;35.47;47.19;;
69610;Laerm;56816;52.192;4.474;2022-07-21T00:02:21;37.22;34.49;40.38;;
69610;Laerm;56816;52.192;4.474;2022-07-21T00:02:31;37.01;34.58;40.02;;
69610;Laerm;56816;52.192;4.474;2022-07-21T00:02:41;37.66;35.76;40.62;;
69610;Laerm;56816;52.192;4.474;2022-07-21T00:02:52;38.70;35.83;43.18;;
69610;Laerm;56816;52.192;4.474;2022-07-21T00:03:02;38.96;35.89;49.46;;
69610;Laerm;56816;52.192;4.474;2022-07-21T00:03:13;38.81;33.74;50.76;;
69610;Laerm;56816;52.192;4.474;2022-07-21T00:03:23;36.44;34.62;38.75;;
69610;Laerm;56816;52.192;4.474;2022-07-21T00:03:33;41.58;36.34;46.53;;
69610;Laerm;56816;52.192;4.474;2022-07-21T00:03:44;39.81;35.58;48.10;;
69610;Laerm;56816;52.192;4.474;2022-07-21T00:03:54;37.57;34.81;41.88;;
69610;Laerm;56816;52.192;4.474;2022-07-21T00:04:04;41.14;34.12;51.67;;
69610;Laerm;56816;52.192;4.474;2022-07-21T00:04:15;49.15;36.73;60.42;;
69610;Laerm;56816;52.192;4.474;2022-07-21T00:04:28;36.96;33.99;45.68;;
69610;Laerm;56816;52.192;4.474;2022-07-21T00:04:38;38.06;35.14;41.40;;
69610;Laerm;56816;52.192;4.474;2022-07-21T00:04:48;37.99;35.91;43.82;;
69610;Laerm;56816;52.192;4.474;2022-07-21T00:04:59;38.56;36.01;44.06;;
69610;Laerm;56816;52.192;4.474;2022-07-21T00:05:09;39.71;36.20;44.30;;
69610;Laerm;56816;52.192;4.474;2022-07-21T00:05:19;37.13;34.81;40.73;;
69610;Laerm;56816;52.192;4.474;2022-07-21T00:05:30;37.86;34.00;44.52;;
69610;Laerm;56816;52.192;4.474;2022-07-21T00:05:40;35.63;33.44;38.05;;
69610;Laerm;56816;52.192;4.474;2022-07-21T00:05:50;35.77;34.02;40.84;;
69610;Laerm;56816;52.192;4.474;2022-07-21T00:06:00;36.69;34.65;39.37;;
69610;Laerm;56816;52.192;4.474;2022-07-21T00:06:11;36.07;34.25;38.70;;
69610;Laerm;56816;52.192;4.474;2022-07-21T00:06:21;38.10;35.58;41.04;;
69610;Laerm;56816;52.192;4.474;2022-07-21T00:06:31;39.11;35.60;43.07;;
69610;Laerm;56816;52.192;4.474;2022-07-21T00:06:42;38.96;35.83;41.59;;
69610;Laerm;56816;52.192;4.474;2022-07-21T00:06:52;37.24;35.21;38.91;;
69610;Laerm;56816;52.192;4.474;2022-07-21T00:07:03;38.69;36.22;41.14;;
69610;Laerm;56816;52.192;4.474;2022-07-21T00:07:13;41.79;38.69;45.09;;
69610;Laerm;56816;52.192;4.474;2022-07-21T00:07:23;44.59;39.81;50.02;;
69610;Laerm;56816;52.192;4.474;2022-07-21T00:07:33;46.74;42.02;53.24;;
69610;Laerm;56816;52.192;4.474;2022-07-21T00:07:44;41.15;37.79;46.64;;
69610;Laerm;56816;52.192;4.474;2022-07-21T00:07:54;41.26;38.05;45.34;;
69610;Laerm;56816;52.192;4.474;2022-07-21T00:08:05;45.50;38.05;49.26;;
69610;Laerm;56816;52.192;4.474;2022-07-21T00:08:15;43.86;38.15;46.81;;
69610;Laerm;56816;52.192;4.474;2022-07-21T00:08:25;37.99;35.34;40.34;;
69610;Laerm;56816;52.192;4.474;2022-07-21T00:08:35;36.55;34.16;39.68;;
69610;Laerm;56816;52.192;4.474;2022-07-21T00:08:46;36.09;33.99;39.30;;
69610;Laerm;56816;52.192;4.474;2022-07-21T00:08:56;36.54;34.15;39.08;;
69610;Laerm;56816;52.192;4.474;2022-07-21T00:09:06;39.28;35.16;45.81;;
69610;Laerm;56816;52.192;4.474;2022-07-21T00:09:16;39.69;35.16;45.85;;
69610;Laerm;56816;52.192;4.474;2022-07-21T00:09:27;36.75;33.86;42.03;;
69610;Laerm;56816;52.192;4.474;2022-07-21T00:09:37;35.74;33.30;37.69;;
69610;Laerm;56816;52.192;4.474;2022-07-21T00:09:47;39.13;35.76;41.86;;
69610;Laerm;56816;52.192;4.474;2022-07-21T00:09:58;41.95;36.78;48.17;;
69610;Laerm;56816;52.192;4.474;2022-07-21T00:10:08;40.89;36.86;45.61;;
69610;Laerm;56816;52.192;4.474;2022-07-21T00:10:20;37.97;34.72;41.41;;
69610;Laerm;56816;52.192;4.474;2022-07-21T00:10:30;35.98;33.26;39.02;;
69610;Laerm;56816;52.192;4.474;2022-07-21T00:10:41;34.70;32.73;36.97;;
69610;Laerm;56816;52.192;4.474;2022-07-21T00:10:51;34.40;32.61;36.39;;
69610;Laerm;56816;52.192;4.474;2022-07-21T00:11:02;34.73;32.74;37.48;;
69610;Laerm;56816;52.192;4.474;2022-07-21T00:11:12;35.10;32.59;38.17;;
69610;Laerm;56816;52.192;4.474;2022-07-21T00:11:23;34.75;32.78;36.41;;
69610;Laerm;56816;52.192;4.474;2022-07-21T00:11:33;35.50;32.96;38.03;;
69610;Laerm;56816;52.192;4.474;2022-07-21T00:11:43;39.37;35.45;43.51;;
69610;Laerm;56816;52.192;4.474;2022-07-21T00:11:54;40.74;34.37;48.41;;
69610;Laerm;56816;52.192;4.474;2022-07-21T00:12:04;38.20;34.84;42.67;;
69610;Laerm;56816;52.192;4.474;2022-07-21T00:12:15;41.45;36.12;52.47;;
69610;Laerm;56816;52.192;4.474;2022-07-21T00:12:25;38.33;35.45;43.48;;
69610;Laerm;56816;52.192;4.474;2022-07-21T00:12:36;35.54;33.22;38.08;;
69610;Laerm;56816;52.192;4.474;2022-07-21T00:12:46;35.03;33.51;36.77;;
69610;Laerm;56816;52.192;4.474;2022-07-21T00:12:57;34.84;32.17;37.55;;
69610;Laerm;56816;52.192;4.474;2022-07-21T00:13:07;36.20;33.32;39.17;;
69610;Laerm;56816;52.192;4.474;2022-07-21T00:13:18;39.52;34.50;47.77;;
69610;Laerm;56816;52.192;4.474;2022-07-21T00:13:28;36.96;34.34;41.76;;
69610;Laerm;56816;52.192;4.474;2022-07-21T00:13:39;37.61;34.98;40.91;;
69610;Laerm;56816;52.192;4.474;2022-07-21T00:13:49;37.33;34.94;43.30;;
69610;Laerm;56816;52.192;4.474;2022-07-21T00:13:59;37.99;34.91;41.47;;
69610;Laerm;56816;52.192;4.474;2022-07-21T00:14:10;38.79;36.03;43.36;;
69610;Laerm;56816;52.192;4.474;2022-07-21T00:14:20;42.32;38.33;48.29;;
69610;Laerm;56816;52.192;4.474;2022-07-21T00:14:30;47.24;36.48;55.75;;
69610;Laerm;56816;52.192;4.474;2022-07-21T00:14:41;37.48;34.70;40.65;;
69610;Laerm;56816;52.192;4.474;2022-07-21T00:14:51;36.97;34.12;39.77;;
69610;Laerm;56816;52.192;4.474;2022-07-21T00:15:02;38.65;36.33;41.85;;
69610;Laerm;56816;52.192;4.474;2022-07-21T00:15:13;41.21;35.60;47.85;;
69610;Laerm;56816;52.192;4.474;2022-07-21T00:15:25;48.63;37.15;56.46;;
69610;Laerm;56816;52.192;4.474;2022-07-21T00:15:35;36.05;33.39;40.10;;
69610;Laerm;56816;52.192;4.474;2022-07-21T00:15:46;34.75;32.76;37.61;;
69610;Laerm;56816;52.192;4.474;2022-07-21T00:15:56;35.27;33.49;37.07;;
69610;Laerm;56816;52.192;4.474;2022-07-21T00:16:07;35.88;33.61;39.30;;
69610;Laerm;56816;52.192;4.474;2022-07-21T00:16:18;35.73;33.04;38.34;;
69610;Laerm;56816;52.192;4.474;2022-07-21T00:16:28;34.72;32.68;36.72;;
69610;Laerm;56816;52.192;4.474;2022-07-21T00:16:39;36.77;34.33;40.07;;
69610;Laerm;56816;52.192;4.474;2022-07-21T00:16:50;37.00;34.57;39.68;;
69610;Laerm;56816;52.192;4.474;2022-07-21T00:17:01;37.00;33.76;41.43;;
69610;Laerm;56816;52.192;4.474;2022-07-21T00:17:11;36.44;34.16;41.07;;
69610;Laerm;56816;52.192;4.474;2022-07-21T00:17:21;37.58;34.50;41.18;;
69610;Laerm;56816;52.192;4.474;2022-07-21T00:17:32;36.27;33.34;39.08;;
69610;Laerm;56816;52.192;4.474;2022-07-21T00:17:43;36.79;33.86;40.21;;
69610;Laerm;56816;52.192;4.474;2022-07-21T00:17:54;35.54;33.02;39.54;;
69610;Laerm;56816;52.192;4.474;2022-07-21T00:18:04;36.39;33.11;39.35;;
69610;Laerm;56816;52.192;4.474;2022-07-21T00:18:15;34.64;32.78;37.14;;
69610;Laerm;56816;52.192;4.474;2022-07-21T00:18:26;35.89;33.54;38.06;;
69610;Laerm;56816;52.192;4.474;2022-07-21T00:18:38;35.63;33.18;44.27;;
69610;Laerm;56816;52.192;4.474;2022-07-21T00:18:48;36.32;33.39;40.73;;
69610;Laerm;56816;52.192;4.474;2022-07-21T00:18:59;41.31;35.09;56.50;;
69610;Laerm;56816;52.192;4.474;2022-07-21T00:19:09;36.94;34.22;44.44;;
69610;Laerm;56816;52.192;4.474;2022-07-21T00:19:20;35.96;33.44;40.25;;
69610;Laerm;56816;52.192;4.474;2022-07-21T00:19:30;35.48;33.07;38.14;;
69610;Laerm;56816;52.192;4.474;2022-07-21T00:19:40;36.18;33.42;40.14;;
69610;Laerm;56816;52.192;4.474;2022-07-21T00:19:50;36.91;34.05;39.93;;
69610;Laerm;56816;52.192;4.474;2022-07-21T00:20:01;36.39;34.19;39.91;;
69610;Laerm;56816;52.192;4.474;2022-07-21T00:20:12;37.56;35.08;41.56;;
69610;Laerm;56816;52.192;4.474;2022-07-21T00:20:23;39.39;35.07;43.99;;
69610;Laerm;56816;52.192;4.474;2022-07-21T00:20:33;37.22;34.46;41.86;;
69610;Laerm;56816;52.192;4.474;2022-07-21T00:20:44;38.73;35.68;45.84;;
69610;Laerm;56816;52.192;4.474;2022-07-21T00:20:55;48.50;42.33;59.20;;
69610;Laerm;56816;52.192;4.474;2022-07-21T00:21:05;46.05;40.05;50.98;;
69610;Laerm;56816;52.192;4.474;2022-07-21T00:21:16;50.27;37.35;57.17;;
69610;Laerm;56816;52.192;4.474;2022-07-21T00:21:27;37.62;35.00;42.52;;
69610;Laerm;56816;52.192;4.474;2022-07-21T00:21:37;38.01;35.06;40.85;;
69610;Laerm;56816;52.192;4.474;2022-07-21T00:21:48;38.23;34.03;43.21;;
69610;Laerm;56816;52.192;4.474;2022-07-21T00:21:58;34.89;32.98;36.56;;
69610;Laerm;56816;52.192;4.474;2022-07-21T00:22:08;34.91;32.87;37.15;;
69610;Laerm;56816;52.192;4.474;2022-07-21T00:22:18;36.88;33.80;50.05;;
69610;Laerm;56816;52.192;4.474;2022-07-21T00:22:29;38.07;35.35;40.64;;
69610;Laerm;56816;52.192;4.474;2022-07-21T00:22:39;40.32;36.45;51.34;;
69610;Laerm;56816;52.192;4.474;2022-07-21T00:22:50;41.15;36.30;46.97;;
69610;Laerm;56816;52.192;4.474;2022-07-21T00:23:00;42.42;37.85;47.13;;
69610;Laerm;56816;52.192;4.474;2022-07-21T00:23:10;42.85;38.97;49.27;;
69610;Laerm;56816;52.192;4.474;2022-07-21T00:23:21;42.96;38.33;48.53;;
69610;Laerm;56816;52.192;4.474;2022-07-21T00:23:32;58.81;43.65;66.25;;
69610;Laerm;56816;52.192;4.474;2022-07-21T00:23:42;41.19;36.45;50.88;;
69610;Laerm;56816;52.192;4.474;2022-07-21T00:23:52;44.45;35.52;50.85;;
69610;Laerm;56816;52.192;4.474;2022-07-21T00:24:03;47.40;43.33;51.73;;
69610;Laerm;56816;52.192;4.474;2022-07-21T00:24:13;48.99;43.16;52.90;;
69610;Laerm;56816;52.192;4.474;2022-07-21T00:24:23;43.69;37.09;51.22;;
69610;Laerm;56816;52.192;4.474;2022-07-21T00:24:34;37.53;35.19;39.94;;
69610;Laerm;56816;52.192;4.474;2022-07-21T00:24:44;37.11;34.67;39.26;;
69610;Laerm;56816;52.192;4.474;2022-07-21T00:24:55;37.71;34.57;44.27;;
69610;Laerm;56816;52.192;4.474;2022-07-21T00:25:05;47.86;38.35;62.18;;
69610;Laerm;56816;52.192;4.474;2022-07-21T00:25:16;36.39;34.45;41.40;;
69610;Laerm;56816;52.192;4.474;2022-07-21T00:25:26;38.64;34.74;42.46;;
69610;Laerm;56816;52.192;4.474;2022-07-21T00:25:36;37.53;35.38;40.35;;
69610;Laerm;56816;52.192;4.474;2022-07-21T00:25:47;37.86;34.96;41.26;;
69610;Laerm;56816;52.192;4.474;2022-07-21T00:25:57;38.95;35.27;42.49;;
69610;Laerm;56816;52.192;4.474;2022-07-21T00:26:07;39.40;36.74;43.08;;
69610;Laerm;56816;52.192;4.474;2022-07-21T00:26:17;38.43;35.14;45.29;;
69610;Laerm;56816;52.192;4.474;2022-07-21T00:26:28;40.94;37.55;45.18;;
69610;Laerm;56816;52.192;4.474;2022-07-21T00:26:38;40.25;35.98;44.31;;
69610;Laerm;56816;52.192;4.474;2022-07-21T00:26:48;39.65;35.32;50.28;;
69610;Laerm;56816;52.192;4.474;2022-07-21T00:26:58;35.69;32.94;40.41;;
69610;Laerm;56816;52.192;4.474;2022-07-21T00:27:09;35.04;33.03;38.54;;
69610;Laerm;56816;52.192;4.474;2022-07-21T00:27:19;35.28;33.07;38.38;;
69610;Laerm;56816;52.192;4.474;2022-07-21T00:27:29;37.19;33.36;43.10;;
69610;Laerm;56816;52.192;4.474;2022-07-21T00:27:40;37.97;34.24;43.73;;
69610;Laerm;56816;52.192;4.474;2022-07-21T00:27:50;38.50;34.03;44.37;;
69610;Laerm;56816;52.192;4.474;2022-07-21T00:28:02;38.06;34.23;44.55;;
69610;Laerm;56816;52.192;4.474;2022-07-21T00:28:12;36.73;33.31;41.28;;
69610;Laerm;56816;52.192;4.474;2022-07-21T00:28:22;35.70;32.62;40.49;;
69610;Laerm;56816;52.192;4.474;2022-07-21T00:28:33;34.72;31.31;40.65;;
69610;Laerm;56816;52.192;4.474;2022-07-21T00:28:43;34.68;32.73;36.84;;
69610;Laerm;56816;52.192;4.474;2022-07-21T00:28:53;37.26;33.80;41.64;;
69610;Laerm;56816;52.192;4.474;2022-07-21T00:29:03;38.15;35.23;43.64;;
69610;Laerm;56816;52.192;4.474;2022-07-21T00:29:13;36.46;33.88;38.45;;
69610;Laerm;56816;52.192;4.474;2022-07-21T00:29:24;34.27;32.34;36.24;;
69610;Laerm;56816;52.192;4.474;2022-07-21T00:29:34;34.94;32.56;37.21;;
69610;Laerm;56816;52.192;4.474;2022-07-21T00:29:44;36.05;33.31;39.83;;
69610;Laerm;56816;52.192;4.474;2022-07-21T00:29:54;35.33;33.43;38.18;;
69610;Laerm;56816;52.192;4.474;2022-07-21T00:30:05;38.33;34.25;41.80;;
69610;Laerm;56816;52.192;4.474;2022-07-21T00:30:16;40.62;37.26;46.29;;
69610;Laerm;56816;52.192;4.474;2022-07-21T00:30:27;42.43;36.25;49.84;;
69610;Laerm;56816;52.192;4.474;2022-07-21T00:30:37;39.45;35.39;43.49;;
69610;Laerm;56816;52.192;4.474;2022-07-21T00:30:47;39.26;36.23;44.39;;
69610;Laerm;56816;52.192;4.474;2022-07-21T00:30:57;39.18;35.85;42.68;;
69610;Laerm;56816;52.192;4.474;2022-07-21T00:31:08;38.97;35.21;44.60;;
69610;Laerm;56816;52.192;4.474;2022-07-21T00:31:18;38.13;34.29;43.51;;
69610;Laerm;56816;52.192;4.474;2022-07-21T00:31:28;37.15;34.21;40.77;;
69610;Laerm;56816;52.192;4.474;2022-07-21T00:31:38;34.39;32.21;36.88;;
69610;Laerm;56816;52.192;4.474;2022-07-21T00:31:49;34.09;32.16;37.45;;
69610;Laerm;56816;52.192;4.474;2022-07-21T00:31:59;34.83;32.77;38.02;;
69610;Laerm;56816;52.192;4.474;2022-07-21T00:32:10;35.30;33.21;38.91;;
69610;Laerm;56816;52.192;4.474;2022-07-21T00:32:20;35.55;32.91;38.87;;
69610;Laerm;56816;52.192;4.474;2022-07-21T00:32:31;36.20;33.47;40.57;;
69610;Laerm;56816;52.192;4.474;2022-07-21T00:32:41;37.25;34.05;40.43;;
69610;Laerm;56816;52.192;4.474;2022-07-21T00:32:52;38.44;35.62;42.74;;
69610;Laerm;56816;52.192;4.474;2022-07-21T00:33:02;38.50;35.52;42.40;;
69610;Laerm;56816;52.192;4.474;2022-07-21T00:33:12;40.13;35.03;45.15;;
69610;Laerm;56816;52.192;4.474;2022-07-21T00:33:22;35.83;33.81;39.57;;
69610;Laerm;56816;52.192;4.474;2022-07-21T00:33:33;35.02;32.79;42.84;;
69610;Laerm;56816;52.192;4.474;2022-07-21T00:33:43;34.86;33.02;36.80;;
69610;Laerm;56816;52.192;4.474;2022-07-21T00:33:53;35.66;33.03;38.33;;
69610;Laerm;56816;52.192;4.474;2022-07-21T00:34:03;35.06;33.27;36.77;;
69610;Laerm;56816;52.192;4.474;2022-07-21T00:34:14;35.38;33.02;38.26;;
69610;Laerm;56816;52.192;4.474;2022-07-21T00:34:24;34.98;33.06;36.92;;
69610;Laerm;56816;52.192;4.474;2022-07-21T00:34:34;34.68;32.71;39.35;;
69610;Laerm;56816;52.192;4.474;2022-07-21T00:34:44;34.71;33.15;36.30;;
69610;Laerm;56816;52.192;4.474;2022-07-21T00:34:55;33.99;31.32;35.71;;
69610;Laerm;56816;52.192;4.474;2022-07-21T00:35:05;33.81;31.87;35.39;;
69610;Laerm;56816;52.192;4.474;2022-07-21T00:35:16;34.60;33.00;37.08;;
69610;Laerm;56816;52.192;4.474;2022-07-21T00:35:26;38.38;34.37;44.50;;
69610;Laerm;56816;52.192;4.474;2022-07-21T00:35:36;39.33;34.83;44.80;;
69610;Laerm;56816;52.192;4.474;2022-07-21T00:35:47;37.76;34.26;42.22;;
69610;Laerm;56816;52.192;4.474;2022-07-21T00:35:57;36.09;33.80;39.62;;
69610;Laerm;56816;52.192;4.474;2022-07-21T00:36:07;36.67;34.33;38.86;;
69610;Laerm;56816;52.192;4.474;2022-07-21T00:36:18;37.85;34.52;41.72;;
69610;Laerm;56816;52.192;4.474;2022-07-21T00:36:29;36.33;34.09;39.75;;
69610;Laerm;56816;52.192;4.474;2022-07-21T00:36:39;35.25;33.11;37.53;;
69610;Laerm;56816;52.192;4.474;2022-07-21T00:36:49;35.99;33.38;41.15;;
69610;Laerm;56816;52.192;4.474;2022-07-21T00:36:59;40.16;35.58;44.52;;
69610;Laerm;56816;52.192;4.474;2022-07-21T00:37:10;35.22;32.73;37.73;;
69610;Laerm;56816;52.192;4.474;2022-07-21T00:37:20;34.31;32.38;36.17;;
69610;Laerm;56816;52.192;4.474;2022-07-21T00:37:33;35.78;31.50;48.29;;
69610;Laerm;56816;52.192;4.474;2022-07-21T00:37:44;34.70;32.63;40.56;;
69610;Laerm;56816;52.192;4.474;2022-07-21T00:37:54;38.85;33.16;49.29;;
69610;Laerm;56816;52.192;4.474;2022-07-21T00:38:04;38.26;32.92;44.65;;
69610;Laerm;56816;52.192;4.474;2022-07-21T00:38:15;37.23;34.67;45.22;;
69610;Laerm;56816;52.192;4.474;2022-07-21T00:38:25;35.30;32.01;38.54;;
69610;Laerm;56816;52.192;4.474;2022-07-21T00:38:35;35.37;32.55;40.63;;
69610;Laerm;56816;52.192;4.474;2022-07-21T00:38:46;34.65;32.15;38.47;;
69610;Laerm;56816;52.192;4.474;2022-07-21T00:38:56;33.67;31.72;36.14;;
69610;Laerm;56816;52.192;4.474;2022-07-21T00:39:07;33.78;32.09;35.76;;
69610;Laerm;56816;52.192;4.474;2022-07-21T00:39:17;34.39;32.25;37.30;;
69610;Laerm;56816;52.192;4.474;2022-07-21T00:39:28;34.14;32.37;36.63;;
69610;Laerm;56816;52.192;4.474;2022-07-21T00:39:38;33.99;31.95;36.16;;
69610;Laerm;56816;52.192;4.474;2022-07-21T00:39:48;34.59;32.29;36.43;;
69610;Laerm;56816;52.192;4.474;2022-07-21T00:39:58;34.12;32.04;36.30;;
69610;Laerm;56816;52.192;4.474;2022-07-21T00:40:09;34.44;32.48;36.76;;
69610;Laerm;56816;52.192;4.474;2022-07-21T00:40:20;34.01;32.30;35.97;;
69610;Laerm;56816;52.192;4.474;2022-07-21T00:40:30;34.54;32.51;36.29;;
69610;Laerm;56816;52.192;4.474;2022-07-21T00:40:41;34.22;32.41;35.74;;
69610;Laerm;56816;52.192;4.474;2022-07-21T00:40:51;35.14;31.79;39.81;;
69610;Laerm;56816;52.192;4.474;2022-07-21T00:41:01;36.00;33.31;43.42;;
69610;Laerm;56816;52.192;4.474;2022-07-21T00:41:11;39.12;34.75;44.52;;
69610;Laerm;56816;52.192;4.474;2022-07-21T00:41:22;37.28;33.95;41.64;;
69610;Laerm;56816;52.192;4.474;2022-07-21T00:41:32;38.01;34.17;49.07;;
69610;Laerm;56816;52.192;4.474;2022-07-21T00:41:44;35.53;33.06;38.71;;
69610;Laerm;56816;52.192;4.474;2022-07-21T00:41:54;35.27;33.37;37.72;;
69610;Laerm;56816;52.192;4.474;2022-07-21T00:42:05;34.62;32.52;38.34;;
69610;Laerm;56816;52.192;4.474;2022-07-21T00:42:22;34.51;32.44;37.94;;
69610;Laerm;56816;52.192;4.474;2022-07-21T00:42:33;34.20;31.68;37.12;;
69610;Laerm;56816;52.192;4.474;2022-07-21T00:42:43;34.16;31.67;37.49;;
69610;Laerm;56816;52.192;4.474;2022-07-21T00:42:54;33.58;31.30;36.55;;
69610;Laerm;56816;52.192;4.474;2022-07-21T00:43:04;32.70;30.77;34.51;;
69610;Laerm;56816;52.192;4.474;2022-07-21T00:43:14;32.77;31.10;34.06;;
69610;Laerm;56816;52.192;4.474;2022-07-21T00:43:25;32.90;31.55;34.53;;
69610;Laerm;56816;52.192;4.474;2022-07-21T00:43:35;33.41;31.67;37.13;;
69610;Laerm;56816;52.192;4.474;2022-07-21T00:43:45;33.95;31.62;36.39;;
69610;Laerm;56816;52.192;4.474;2022-07-21T00:43:55;34.54;32.29;38.91;;
69610;Laerm;56816;52.192;4.474;2022-07-21T00:44:05;34.74;32.11;37.17;;
69610;Laerm;56816;52.192;4.474;2022-07-21T00:44:22;37.75;33.32;44.54;;
69610;Laerm;56816;52.192;4.474;2022-07-21T00:44:32;36.07;32.34;40.68;;
69610;Laerm;56816;52.192;4.474;2022-07-21T00:44:43;33.85;31.77;35.91;;
69610;Laerm;56816;52.192;4.474;2022-07-21T00:44:53;33.65;31.56;37.90;;
69610;Laerm;56816;52.192;4.474;2022-07-21T00:45:04;33.39;31.48;35.68;;
69610;Laerm;56816;52.192;4.474;2022-07-21T00:45:15;33.28;31.40;35.38;;
69610;Laerm;56816;52.192;4.474;2022-07-21T00:45:25;33.30;31.59;35.07;;
69610;Laerm;56816;52.192;4.474;2022-07-21T00:45:36;33.83;31.56;35.81;;
69610;Laerm;56816;52.192;4.474;2022-07-21T00:45:46;34.13;32.18;35.71;;
69610;Laerm;56816;52.192;4.474;2022-07-21T00:45:56;37.08;33.64;41.53;;
69610;Laerm;56816;52.192;4.474;2022-07-21T00:46:06;45.37;37.96;50.72;;
69610;Laerm;56816;52.192;4.474;2022-07-21T00:46:19;48.91;35.85;57.32;;
69610;Laerm;56816;52.192;4.474;2022-07-21T00:46:29;49.87;34.07;60.23;;
69610;Laerm;56816;52.192;4.474;2022-07-21T00:46:40;36.83;34.79;44.73;;
69610;Laerm;56816;52.192;4.474;2022-07-21T00:46:50;37.96;35.12;44.49;;
69610;Laerm;56816;52.192;4.474;2022-07-21T00:47:01;38.56;35.36;47.88;;
69610;Laerm;56816;52.192;4.474;2022-07-21T00:47:11;40.03;36.49;45.45;;
69610;Laerm;56816;52.192;4.474;2022-07-21T00:47:22;41.09;38.45;44.02;;
69610;Laerm;56816;52.192;4.474;2022-07-21T00:47:32;45.35;38.99;51.49;;
69610;Laerm;56816;52.192;4.474;2022-07-21T00:47:43;44.67;36.00;51.04;;
69610;Laerm;56816;52.192;4.474;2022-07-21T00:47:54;37.73;35.57;40.59;;
69610;Laerm;56816;52.192;4.474;2022-07-21T00:48:04;37.67;34.94;41.13;;
69610;Laerm;56816;52.192;4.474;2022-07-21T00:48:14;36.09;34.38;38.87;;
69610;Laerm;56816;52.192;4.474;2022-07-21T00:48:25;35.30;33.51;37.15;;
69610;Laerm;56816;52.192;4.474;2022-07-21T00:48:35;34.92;33.21;36.48;;
69610;Laerm;56816;52.192;4.474;2022-07-21T00:48:45;35.79;33.36;39.91;;
69610;Laerm;56816;52.192;4.474;2022-07-21T00:48:55;34.56;32.46;36.44;;
69610;Laerm;56816;52.192;4.474;2022-07-21T00:49:06;34.71;32.81;36.87;;
69610;Laerm;56816;52.192;4.474;2022-07-21T00:49:16;34.30;31.86;36.54;;
69610;Laerm;56816;52.192;4.474;2022-07-21T00:49:26;33.81;31.65;36.15;;
69610;Laerm;56816;52.192;4.474;2022-07-21T00:49:37;33.89;32.41;35.57;;
69610;Laerm;56816;52.192;4.474;2022-07-21T00:49:48;33.57;31.31;35.27;;
69610;Laerm;56816;52.192;4.474;2022-07-21T00:49:59;34.04;31.76;39.84;;
69610;Laerm;56816;52.192;4.474;2022-07-21T00:50:11;34.45;32.13;38.20;;
69610;Laerm;56816;52.192;4.474;2022-07-21T00:50:22;36.30;33.36;48.52;;
69610;Laerm;56816;52.192;4.474;2022-07-21T00:50:32;36.42;32.73;53.13;;
69610;Laerm;56816;52.192;4.474;2022-07-21T00:50:43;36.83;34.50;42.73;;
69610;Laerm;56816;52.192;4.474;2022-07-21T00:50:53;43.76;36.36;47.34;;
69610;Laerm;56816;52.192;4.474;2022-07-21T00:51:03;41.87;35.01;47.87;;
69610;Laerm;56816;52.192;4.474;2022-07-21T00:51:14;48.35;36.25;55.91;;
69610;Laerm;56816;52.192;4.474;2022-07-21T00:51:24;36.13;33.71;40.79;;
69610;Laerm;56816;52.192;4.474;2022-07-21T00:51:34;35.39;32.90;40.32;;
69610;Laerm;56816;52.192;4.474;2022-07-21T00:51:44;33.65;31.71;37.67;;
69610;Laerm;56816;52.192;4.474;2022-07-21T00:51:55;33.70;31.70;36.74;;
69610;Laerm;56816;52.192;4.474;2022-07-21T00:52:05;33.43;31.55;35.87;;
69610;Laerm;56816;52.192;4.474;2022-07-21T00:52:16;33.22;31.15;34.86;;
69610;Laerm;56816;52.192;4.474;2022-07-21T00:52:26;32.97;31.10;35.82;;
69610;Laerm;56816;52.192;4.474;2022-07-21T00:52:37;33.37;31.31;38.03;;
69610;Laerm;56816;52.192;4.474;2022-07-21T00:52:47;33.90;31.71;40.56;;
69610;Laerm;56816;52.192;4.474;2022-07-21T00:52:57;33.48;31.94;35.25;;
69610;Laerm;56816;52.192;4.474;2022-07-21T00:53:08;33.72;31.34;36.08;;
69610;Laerm;56816;52.192;4.474;2022-07-21T00:53:18;33.37;31.33;36.09;;
69610;Laerm;56816;52.192;4.474;2022-07-21T00:53:28;33.88;31.60;36.29;;
69610;Laerm;56816;52.192;4.474;2022-07-21T00:53:38;33.74;31.93;35.65;;
69610;Laerm;56816;52.192;4.474;2022-07-21T00:53:49;33.76;31.85;37.37;;
69610;Laerm;56816;52.192;4.474;2022-07-21T00:53:59;33.03;31.42;35.56;;
69610;Laerm;56816;52.192;4.474;2022-07-21T00:54:09;32.92;31.22;35.01;;
69610;Laerm;56816;52.192;4.474;2022-07-21T00:54:19;33.18;31.24;34.99;;
69610;Laerm;56816;52.192;4.474;2022-07-21T00:54:30;36.30;31.65;44.53;;
69610;Laerm;56816;52.192;4.474;2022-07-21T00:54:40;38.71;31.95;48.95;;
69610;Laerm;56816;52.192;4.474;2022-07-21T00:54:51;37.18;32.97;44.26;;
69610;Laerm;56816;52.192;4.474;2022-07-21T00:55:01;36.95;33.75;40.57;;
69610;Laerm;56816;52.192;4.474;2022-07-21T00:55:20;35.42;32.62;38.64;;
69610;Laerm;56816;52.192;4.474;2022-07-21T00:55:31;34.19;32.18;36.73;;
69610;Laerm;56816;52.192;4.474;2022-07-21T00:55:41;33.15;31.33;35.39;;
69610;Laerm;56816;52.192;4.474;2022-07-21T00:55:52;32.84;31.26;34.88;;
69610;Laerm;56816;52.192;4.474;2022-07-21T00:56:02;32.79;31.01;34.34;;
69610;Laerm;56816;52.192;4.474;2022-07-21T00:56:13;32.98;31.29;35.00;;
69610;Laerm;56816;52.192;4.474;2022-07-21T00:56:23;33.13;31.00;35.60;;
69610;Laerm;56816;52.192;4.474;2022-07-21T00:56:34;33.96;32.04;36.08;;
69610;Laerm;56816;52.192;4.474;2022-07-21T00:56:44;34.67;32.53;37.74;;
69610;Laerm;56816;52.192;4.474;2022-07-21T00:56:55;35.00;32.43;38.02;;
69610;Laerm;56816;52.192;4.474;2022-07-21T00:57:05;34.84;32.36;39.09;;
69610;Laerm;56816;52.192;4.474;2022-07-21T00:57:16;35.61;32.33;38.74;;
69610;Laerm;56816;52.192;4.474;2022-07-21T00:57:26;33.89;32.16;35.93;;
69610;Laerm;56816;52.192;4.474;2022-07-21T00:57:36;34.47;32.57;37.92;;
69610;Laerm;56816;52.192;4.474;2022-07-21T00:57:46;36.81;33.44;41.45;;
69610;Laerm;56816;52.192;4.474;2022-07-21T00:57:57;36.34;33.25;40.31;;
69610;Laerm;56816;52.192;4.474;2022-07-21T00:58:07;35.39;33.52;39.13;;
69610;Laerm;56816;52.192;4.474;2022-07-21T00:58:18;34.81;32.95;37.28;;
69610;Laerm;56816;52.192;4.474;2022-07-21T00:58:28;35.01;33.21;36.44;;
69610;Laerm;56816;52.192;4.474;2022-07-21T00:58:39;38.37;33.88;42.14;;
69610;Laerm;56816;52.192;4.474;2022-07-21T00:58:49;40.81;35.35;44.87;;